Time;durP1;ratioP1;P1;durP2;ratioP2;P2;SDS_P1;SDS_P2;PMS_P1;PMS_P2;Temp;Humidity;BMP_temperature;BMP_pressure;BME280_temperature;BME280_humidity;BME280_pressure;Samples;Min_cycle;Max_cycle;Signal;HPM_P1;HPM_P2
2022/10/31 00:01:39;;;;;;;2.05;1.85;;;;;;;11.84;98.42;100198.56;5096475;28;20067;-74
2022/10/31 00:04:08;;;;;;;2.25;1.70;;;;;;;11.89;98.38;100202.00;5096633;28;20072;-73
2022/10/31 00:06:36;;;;;;;2.10;1.33;;;;;;;11.92;98.40;100207.13;5096641;28;20044;-73
2022/10/31 00:09:06;;;;;;;3.60;2.28;;;;;;;11.89;98.49;100202.00;5096908;28;20055;-72
2022/10/31 00:11:36;;;;;;;2.50;2.30;;;;;;;11.84;98.42;100192.59;5096493;28;20032;-72
2022/10/31 00:14:04;;;;;;;3.15;1.52;;;;;;;11.96;98.27;100208.84;5096472;28;20075;-72
2022/10/31 00:16:33;;;;;;;7.40;4.38;;;;;;;11.97;98.46;100209.69;5096485;28;20044;-73
2022/10/31 00:19:05;;;;;;;1.85;1.38;;;;;;;11.96;98.13;100210.53;5096272;28;20159;-71
2022/10/31 00:21:34;;;;;;;0.95;0.95;;;;;;;11.97;98.35;100207.13;5096355;28;20052;-72
2022/10/31 00:24:03;;;;;;;;;;;;;;;11.99;97.90;100202.88;5096703;28;20703;-73
2022/10/31 00:26:32;;;;;;;3.40;2.13;;;;;;;11.98;97.97;100206.25;5096155;28;19920;-73
2022/10/31 00:29:02;;;;;;;1.98;1.38;;;;;;;11.92;98.22;100199.47;5096477;28;20044;-72
2022/10/31 00:31:31;;;;;;;3.78;2.45;;;;;;;11.98;98.23;100207.13;5096449;28;20432;-72
2022/10/31 00:34:02;;;;;;;2.30;2.10;;;;;;;11.97;97.87;100200.28;5096096;28;20054;-72
2022/10/31 00:36:31;;;;;;;2.80;1.77;;;;;;;11.94;97.90;100207.97;5095953;28;20520;-71
2022/10/31 00:39:01;;;;;;;4.13;1.70;;;;;;;11.81;98.08;100185.78;5095899;28;20054;-72
2022/10/31 00:41:30;;;;;;;1.63;1.52;;;;;;;11.92;98.07;100193.47;5096281;28;20040;-72
2022/10/31 00:43:58;;;;;;;1.57;1.47;;;;;;;11.91;97.89;100195.19;5095923;28;20551;-72
2022/10/31 00:46:28;;;;;;;4.72;2.85;;;;;;;11.85;97.88;100194.31;5096101;28;20285;-73
2022/10/31 00:48:57;;;;;;;2.13;1.38;;;;;;;11.84;97.83;100202.81;5095827;28;20051;-72
2022/10/31 00:51:26;;;;;;;1.17;0.80;;;;;;;11.77;97.87;100196.84;5096071;28;20048;-73
2022/10/31 00:53:55;;;;;;;1.35;1.25;;;;;;;11.74;97.89;100190.88;5094453;28;20281;-72
2022/10/31 00:56:23;;;;;;;4.37;1.70;;;;;;;11.72;97.83;100188.31;5094345;28;20517;-73
2022/10/31 00:58:53;;;;;;;1.55;1.45;;;;;;;11.70;97.80;100187.47;5095566;28;20044;-72
2022/10/31 01:01:21;;;;;;;0.80;0.80;;;;;;;11.65;97.89;100191.66;5094411;28;20031;-73
2022/10/31 01:03:52;;;;;;;0.63;0.63;;;;;;;11.62;97.98;100196.75;5094146;28;20111;-73
2022/10/31 01:06:21;;;;;;;3.03;2.53;;;;;;;11.59;97.90;100186.53;5094112;28;20044;-71
2022/10/31 01:08:50;;;;;;;1.67;1.48;;;;;;;11.57;97.83;100183.09;5095428;28;20036;-72
2022/10/31 01:11:21;;;;;;;1.77;1.60;;;;;;;11.59;98.02;100181.41;5095659;28;20051;-73
2022/10/31 01:13:52;;;;;;;1.50;1.02;;;;;;;11.57;98.02;100190.78;5078321;28;20043;-73
2022/10/31 01:16:24;;;;;;;3.08;1.20;;;;;;;11.36;97.93;100153.22;5095543;28;20047;-74
2022/10/31 01:18:54;;;;;;;1.35;1.25;;;;;;;11.55;97.88;100187.38;5095444;28;20048;-72
2022/10/31 01:21:25;;;;;;;3.13;1.85;;;;;;;11.57;98.04;100187.34;5095507;28;20040;-72
2022/10/31 01:23:58;;;;;;;1.45;1.30;;;;;;;11.53;98.08;100181.41;5094004;28;20048;-73
2022/10/31 01:26:29;;;;;;;1.10;1.00;;;;;;;11.57;98.13;100182.25;5093907;28;20040;-73
2022/10/31 01:28:59;;;;;;;0.40;0.40;;;;;;;11.60;98.16;100177.16;5093905;28;20040;-73
2022/10/31 01:31:31;;;;;;;3.50;2.47;;;;;;;11.61;98.06;100177.19;5044586;28;20056;-73
2022/10/31 01:34:01;;;;;;;2.25;2.05;;;;;;;11.60;98.18;100179.72;5110775;28;20044;-72
2022/10/31 01:36:32;;;;;;;1.35;1.25;;;;;;;11.60;98.22;100177.16;5093683;28;20055;-73
2022/10/31 01:39:05;;;;;;;1.30;1.17;;;;;;;11.61;98.19;100178.88;5094151;28;20051;-73
2022/10/31 01:41:37;;;;;;;2.20;1.95;;;;;;;11.63;98.16;100178.03;5093603;28;20105;-73
2022/10/31 01:44:32;;;;;;;1.27;1.17;;;;;;;11.59;98.33;100166.06;5110534;28;20040;-73
2022/10/31 01:47:05;;;;;;;0.50;0.50;;;;;;;11.40;98.34;100133.63;5093260;28;20066;-72
2022/10/31 01:49:41;;;;;;;1.23;1.13;;;;;;;11.60;98.12;100172.91;5094682;28;20076;-72
2022/10/31 01:52:15;;;;;;;1.45;1.30;;;;;;;11.57;98.13;100172.88;5094899;28;20058;-71
2022/10/31 01:54:50;;;;;;;6.85;1.52;;;;;;;11.55;98.03;100171.16;5110405;28;20040;-71
2022/10/31 01:57:21;;;;;;;1.20;1.10;;;;;;;11.56;98.17;100166.09;5094489;28;20052;-72
2022/10/31 01:59:58;;;;;;;1.38;1.08;;;;;;;11.56;98.35;100170.34;5094404;28;20044;-72
2022/10/31 02:02:30;;;;;;;1.38;1.20;;;;;;;11.52;98.24;100164.34;5094132;28;20131;-73
2022/10/31 02:05:05;;;;;;;4.57;1.30;;;;;;;11.50;98.55;100166.03;5093254;28;20502;-72
2022/10/31 02:07:39;;;;;;;1.17;1.08;;;;;;;11.53;98.34;100168.63;5094310;28;20101;-72
2022/10/31 02:10:08;;;;;;;1.00;0.98;;;;;;;11.55;98.49;100156.69;5094569;28;20444;-72
2022/10/31 02:12:37;;;;;;;2.60;2.20;;;;;;;11.54;98.52;100160.09;5092895;28;20054;-72
2022/10/31 02:15:07;;;;;;;1.13;1.02;;;;;;;11.60;98.20;100162.69;5094186;28;20047;-72
2022/10/31 02:17:36;;;;;;;3.10;2.05;;;;;;;11.55;98.45;100149.03;5094474;28;20055;-72
2022/10/31 02:20:16;;;;;;;4.30;2.17;;;;;;;11.58;98.30;100153.28;5093994;28;20044;-71
2022/10/31 02:23:12;;;;;;;1.23;1.13;;;;;;;11.56;98.38;100155.84;5094094;28;20624;-71
2022/10/31 02:26:04;;;;;;;1.00;0.95;;;;;;;11.57;98.47;100160.09;5092824;28;20044;-72
2022/10/31 02:28:53;;;;;;;0.75;0.75;;;;;;;11.58;98.48;100159.25;5092763;28;20127;-73
2022/10/31 02:31:35;;;;;;;1.83;1.63;;;;;;;11.59;98.47;100160.94;5092777;28;20055;-73
2022/10/31 02:34:16;;;;;;;1.08;1.05;;;;;;;11.57;98.61;100157.53;5093078;28;20072;-72
2022/10/31 02:36:57;;;;;;;1.67;1.33;;;;;;;11.55;98.24;100154.13;5092689;28;20048;-72
2022/10/31 02:39:30;;;;;;;0.68;0.68;;;;;;;11.50;98.39;100149.84;5092815;28;20047;-73
2022/10/31 02:42:09;;;;;;;1.35;1.25;;;;;;;11.50;98.19;100154.97;5093252;28;20051;-72
2022/10/31 02:44:41;;;;;;;;;;;;;;;11.46;98.59;100159.22;5093046;28;20040;-72
2022/10/31 02:47:15;;;;;;;0.82;0.82;;;;;;;11.45;98.37;100157.50;5093736;28;20407;-73
2022/10/31 02:49:49;;;;;;;1.42;1.33;;;;;;;11.43;98.48;100154.94;5092493;28;20101;-73
2022/10/31 02:52:19;;;;;;;1.85;1.48;;;;;;;11.37;98.43;100165.13;5092276;28;20122;-73
2022/10/31 02:54:49;;;;;;;1.17;1.10;;;;;;;11.35;98.42;100168.53;5093750;28;20051;-73
2022/10/31 02:57:20;;;;;;;;;;;;;;;11.33;98.40;100165.13;5092835;28;20062;-73
2022/10/31 02:59:54;;;;;;;1.98;1.42;;;;;;;11.29;98.36;100171.09;5092329;28;19920;-72
2022/10/31 03:02:58;;;;;;;1.55;1.45;;;;;;;11.31;98.33;100169.38;5092309;28;20098;-72
2022/10/31 03:05:42;;;;;;;0.50;0.50;;;;;;;11.35;98.71;100165.97;5088460;28;20046;-71
2022/10/31 03:08:22;;;;;;;0.88;0.88;;;;;;;11.11;98.54;100125.03;5092353;28;20048;-72
2022/10/31 03:10:54;;;;;;;;;;;;;;;11.36;98.57;100175.38;5093020;28;20040;-72
2022/10/31 03:13:35;;;;;;;1.42;1.33;;;;;;;11.32;98.53;100163.44;5092655;28;19920;-72
2022/10/31 03:16:13;;;;;;;1.73;1.30;;;;;;;11.35;98.55;100171.09;5092652;28;20151;-72
2022/10/31 03:18:51;;;;;;;1.80;1.70;;;;;;;11.27;98.66;100167.66;5092296;28;20105;-72
2022/10/31 03:21:26;;;;;;;0.60;0.60;;;;;;;11.32;98.64;100176.22;5093314;28;20040;-73
2022/10/31 03:23:58;;;;;;;1.20;1.13;;;;;;;11.34;98.59;100177.06;5094006;28;20359;-73
2022/10/31 03:26:27;;;;;;;1.20;1.08;;;;;;;11.37;98.70;100175.38;5093400;28;20063;-71
2022/10/31 03:29:01;;;;;;;1.20;1.10;;;;;;;11.42;98.83;100180.53;5109092;28;20498;-71
2022/10/31 03:31:34;;;;;;;1.35;1.25;;;;;;;11.44;98.78;100171.97;5092065;28;20044;-71
2022/10/31 03:34:04;;;;;;;0.63;0.63;;;;;;;11.43;98.74;100184.75;5093644;28;20071;-72
2022/10/31 03:36:39;;;;;;;1.50;1.27;;;;;;;11.40;98.68;100185.59;5092462;28;20139;-73
2022/10/31 03:39:14;;;;;;;0.60;0.52;;;;;;;11.41;98.86;100186.47;5093267;28;20044;-73
2022/10/31 03:41:48;;;;;;;0.60;0.60;;;;;;;11.43;98.73;100182.22;5093114;28;20040;-71
2022/10/31 03:44:20;;;;;;;0.50;0.50;;;;;;;11.42;98.71;100183.91;5092024;28;20055;-72
2022/10/31 03:46:58;;;;;;;3.83;1.42;;;;;;;11.36;98.57;100178.78;5092068;28;20448;-73
2022/10/31 03:49:27;;;;;;;1.55;1.42;;;;;;;11.42;98.70;100185.63;5091991;28;20073;-73
2022/10/31 03:52:08;;;;;;;1.10;1.00;;;;;;;11.41;98.48;100192.44;5093086;28;20040;-73
2022/10/31 03:54:43;;;;;;;0.90;0.88;;;;;;;11.40;98.60;100189.84;5075543;28;20048;-72
2022/10/31 03:57:20;;;;;;;1.23;1.13;;;;;;;11.40;98.56;100189.84;5093345;28;20397;-72
2022/10/31 03:59:54;;;;;;;1.25;1.15;;;;;;;11.38;98.54;100186.44;5091878;28;20040;-73
2022/10/31 04:02:29;;;;;;;1.05;0.95;;;;;;;11.35;98.38;100186.44;5091741;28;20059;-72
2022/10/31 04:05:00;;;;;;;0.70;0.70;;;;;;;11.30;98.58;100186.41;5095853;28;20139;-72
2022/10/31 04:07:38;;;;;;;1.70;1.60;;;;;;;11.30;98.41;100188.97;5096685;28;20101;-72
2022/10/31 04:10:14;;;;;;;0.50;0.50;;;;;;;11.29;98.54;100192.38;5096610;28;20048;-73
2022/10/31 04:12:49;;;;;;;1.92;1.00;;;;;;;11.26;98.35;100186.38;5095275;28;20093;-74
2022/10/31 04:15:27;;;;;;;1.13;1.02;;;;;;;10.99;98.76;100142.84;5095810;28;20040;-74
2022/10/31 04:18:00;;;;;;;1.70;0.95;;;;;;;11.22;98.53;100184.69;5112856;28;20122;-74
2022/10/31 04:20:31;;;;;;;1.25;1.15;;;;;;;11.20;98.92;100186.38;5078558;28;20052;-72
2022/10/31 04:23:02;;;;;;;1.23;0.85;;;;;;;11.24;98.47;100190.66;5095045;28;20045;-72
2022/10/31 04:25:32;;;;;;;0.93;0.82;;;;;;;11.21;98.46;100188.94;5095147;28;20044;-73
2022/10/31 04:28:01;;;;;;;1.87;1.40;;;;;;;11.20;98.55;100189.78;5096585;28;20046;-73
2022/10/31 04:30:31;;;;;;;1.95;1.05;;;;;;;11.23;98.50;100196.59;5095270;28;20486;-72
2022/10/31 04:32:59;;;;;;;1.13;1.03;;;;;;;11.24;98.51;100188.09;5094955;28;20036;-73
2022/10/31 04:35:29;;;;;;;0.40;0.40;;;;;;;11.31;98.48;100193.25;5094840;28;20048;-71
2022/10/31 04:37:58;;;;;;;1.40;1.27;;;;;;;11.36;98.66;100189.00;5095229;28;20048;-72
2022/10/31 04:40:28;;;;;;;4.80;2.55;;;;;;;11.34;98.51;100183.03;5094792;28;20127;-72
2022/10/31 04:43:20;;;;;;;2.05;1.67;;;;;;;11.33;98.67;100183.88;5085342;28;20052;-74
2022/10/31 04:45:49;;;;;;;1.17;1.08;;;;;;;11.32;98.46;100176.22;5094692;28;20102;-73
2022/10/31 04:48:18;;;;;;;1.98;1.50;;;;;;;11.35;98.64;100183.88;5096123;28;20390;-72
2022/10/31 04:50:46;;;;;;;0.93;0.80;;;;;;;11.31;98.49;100179.59;5111617;28;20075;-73
2022/10/31 04:53:15;;;;;;;0.70;0.70;;;;;;;11.01;98.41;100149.69;5095043;28;20557;-73
2022/10/31 04:55:58;;;;;;;0.77;0.77;;;;;;;11.17;98.34;100186.34;5095727;28;20040;-73
2022/10/31 04:58:34;;;;;;;1.57;1.43;;;;;;;11.16;98.19;100189.75;5095693;28;20044;-73
2022/10/31 05:01:05;;;;;;;0.40;0.40;;;;;;;11.14;98.30;100188.88;5095883;28;20044;-74
2022/10/31 05:03:34;;;;;;;;;;;;;;;11.19;97.99;100189.75;5094542;28;20044;-73
2022/10/31 05:06:05;;;;;;;1.20;1.10;;;;;;;11.21;98.51;100188.06;5095610;28;20405;-72
2022/10/31 05:08:33;;;;;;;1.73;1.33;;;;;;;11.17;98.38;100199.13;5094310;28;20036;-71
2022/10/31 05:11:07;;;;;;;1.63;1.20;;;;;;;11.05;98.28;100192.25;5094425;28;20040;-71
2022/10/31 05:13:35;;;;;;;1.40;1.20;;;;;;;10.86;98.33;100184.47;5095557;28;20042;-72
2022/10/31 05:16:30;;;;;;;1.80;1.67;;;;;;;10.86;98.27;100208.31;5095392;28;20387;-74
2022/10/31 05:19:09;;;;;;;0.73;0.73;;;;;;;10.76;98.27;100204.84;5094563;28;20048;-74
2022/10/31 05:21:49;;;;;;;2.47;2.05;;;;;;;10.78;98.46;100210.81;5095149;28;20044;-74
2022/10/31 05:24:17;;;;;;;1.67;1.58;;;;;;;10.84;98.62;100209.16;5094170;28;20489;-71
2022/10/31 05:26:50;;;;;;;0.50;0.50;;;;;;;10.89;98.59;100210.03;5095107;28;20119;-71
2022/10/31 05:29:19;;;;;;;0.77;0.77;;;;;;;10.87;98.49;100202.34;5094205;28;20047;-71
2022/10/31 05:31:48;;;;;;;;;;;;;;;10.84;98.43;100201.50;5094200;28;20044;-71
2022/10/31 05:34:37;;;;;;;0.63;0.63;;;;;;;10.83;98.64;100209.97;5095206;28;20384;-74
2022/10/31 05:37:20;;;;;;;1.15;0.95;;;;;;;10.92;98.20;100216.00;5094057;28;20143;-74
2022/10/31 05:39:48;;;;;;;2.97;1.27;;;;;;;10.92;98.62;100215.19;5093645;28;20039;-74
2022/10/31 05:42:19;;;;;;;0.85;0.82;;;;;;;10.91;98.60;100218.56;5076941;28;20490;-74
2022/10/31 05:44:49;;;;;;;2.50;2.30;;;;;;;10.88;98.42;100216.84;5093897;28;20048;-72
2022/10/31 05:47:31;;;;;;;0.68;0.68;;;;;;;10.96;98.65;100222.00;5094678;28;20139;-72
2022/10/31 05:50:11;;;;;;;0.90;0.82;;;;;;;10.92;98.57;100227.94;5094993;28;20050;-71
2022/10/31 05:52:48;;;;;;;5.55;0.95;;;;;;;10.92;98.67;100230.50;5094934;28;20139;-74
2022/10/31 05:55:32;;;;;;;1.45;1.02;;;;;;;10.94;98.60;100227.09;5093288;28;20044;-74
2022/10/31 05:58:10;;;;;;;1.83;1.73;;;;;;;10.91;98.64;100223.66;5093767;28;20040;-74
2022/10/31 06:00:41;;;;;;;8.50;3.90;;;;;;;10.94;98.59;100233.91;5094469;28;20055;-72
2022/10/31 06:03:12;;;;;;;1.00;0.93;;;;;;;10.97;98.69;100236.47;5094186;28;20139;-74
2022/10/31 06:06:00;;;;;;;2.15;1.95;;;;;;;10.89;98.59;100220.25;5094253;28;20063;-74
2022/10/31 06:08:37;;;;;;;4.47;1.95;;;;;;;11.01;98.75;100244.19;5094323;28;20048;-72
2022/10/31 06:11:09;;;;;;;2.22;1.02;;;;;;;11.01;98.67;100233.97;5093292;28;20402;-71
2022/10/31 06:13:50;;;;;;;1.20;1.10;;;;;;;11.12;98.74;100244.22;5094856;28;20046;-72
2022/10/31 06:16:24;;;;;;;2.60;1.60;;;;;;;11.14;98.60;100247.66;5094787;28;20052;-71
2022/10/31 06:18:56;;;;;;;2.83;1.52;;;;;;;11.16;98.65;100248.50;5094122;28;20048;-71
2022/10/31 06:21:25;;;;;;;1.23;0.93;;;;;;;11.13;98.73;100240.84;5094031;28;20043;-71
2022/10/31 06:23:53;;;;;;;1.40;1.30;;;;;;;11.21;98.54;100249.38;5094315;28;20157;-71
2022/10/31 06:26:42;;;;;;;1.73;1.63;;;;;;;11.23;98.66;100258.78;5093589;28;20071;-71
2022/10/31 06:29:13;;;;;;;2.17;1.17;;;;;;;11.25;98.46;100262.19;5093906;28;20040;-71
2022/10/31 06:32:05;;;;;;;0.73;0.73;;;;;;;11.25;98.65;100258.81;5094407;28;20490;-72
2022/10/31 06:34:39;;;;;;;3.40;1.00;;;;;;;11.26;98.46;100257.94;5093880;28;20577;-71
2022/10/31 06:37:09;;;;;;;;;;;;;;;11.19;98.08;100266.41;5094651;28;20066;-72
2022/10/31 06:39:40;;;;;;;3.58;1.63;;;;;;;11.10;98.11;100266.38;5092668;28;19920;-71
2022/10/31 06:42:11;;;;;;;0.63;0.63;;;;;;;11.03;98.23;100272.28;5092832;28;20032;-73
2022/10/31 06:44:41;;;;;;;0.88;0.77;;;;;;;11.05;98.19;100273.13;5092779;28;20401;-71
2022/10/31 06:47:21;;;;;;;0.73;0.73;;;;;;;11.02;98.28;100276.53;5094051;28;20051;-71
2022/10/31 06:49:57;;;;;;;2.85;1.17;;;;;;;10.96;98.29;100273.09;5093657;28;20508;-71
2022/10/31 06:52:27;;;;;;;;;;;;;;;10.98;98.48;100279.06;5094040;28;20048;-71
2022/10/31 06:54:57;;;;;;;0.88;0.80;;;;;;;11.04;98.17;100281.63;5093554;28;20011;-74
2022/10/31 06:57:26;;;;;;;2.67;1.35;;;;;;;11.04;98.30;100276.53;5092699;28;20047;-75
2022/10/31 06:59:57;;;;;;;2.42;2.22;;;;;;;11.03;98.28;100287.59;5092719;28;20075;-69
2022/10/31 07:02:36;;;;;;;1.10;0.90;;;;;;;11.10;98.39;100290.22;5093291;28;20135;-71
2022/10/31 07:05:07;;;;;;;1.55;0.90;;;;;;;11.14;98.31;100288.53;5092404;28;20040;-74
2022/10/31 07:07:35;;;;;;;1.08;0.98;;;;;;;11.13;98.14;100295.31;5092811;28;20040;-71
2022/10/31 07:10:04;;;;;;;0.60;0.60;;;;;;;11.16;98.06;100297.03;5093811;28;20044;-72
2022/10/31 07:12:44;;;;;;;3.28;1.25;;;;;;;11.16;98.28;100287.69;5062023;28;20040;-72
2022/10/31 07:15:15;;;;;;;0.90;0.90;;;;;;;11.12;98.18;100296.19;5109218;28;20044;-74
2022/10/31 07:17:44;;;;;;;1.10;0.98;;;;;;;11.10;98.12;100291.91;5092523;28;20071;-74
2022/10/31 07:20:13;;;;;;;0.65;0.65;;;;;;;11.14;98.17;100293.63;5092196;28;20123;-73
2022/10/31 07:22:42;;;;;;;1.27;1.17;;;;;;;11.21;98.12;100290.28;5092406;28;20123;-75
2022/10/31 07:25:27;;;;;;;0.73;0.73;;;;;;;11.28;98.46;100287.75;5092521;28;20097;-72
2022/10/31 07:28:19;;;;;;;1.02;0.80;;;;;;;11.28;98.13;100292.00;5087082;28;20577;-72
2022/10/31 07:30:53;;;;;;;0.43;0.43;;;;;;;11.23;97.78;100283.47;5093270;28;20083;-73
2022/10/31 07:33:23;;;;;;;0.52;0.52;;;;;;;11.24;97.89;100283.50;5092071;28;20044;-75
2022/10/31 07:36:02;;;;;;;1.05;1.05;;;;;;;11.31;97.90;100292.03;5093238;28;20047;-72
2022/10/31 07:38:33;;;;;;;1.08;1.00;;;;;;;11.27;97.97;100291.19;5094330;28;20048;-73
2022/10/31 07:41:05;;;;;;;0.45;0.45;;;;;;;11.30;97.82;100280.13;5097223;28;20498;-73
2022/10/31 07:43:39;;;;;;;0.68;0.68;;;;;;;11.20;97.53;100284.34;5096974;28;20044;-71
2022/10/31 07:46:12;;;;;;;2.88;1.67;;;;;;;11.24;98.05;100290.28;5097427;28;20044;-75
2022/10/31 07:49:04;;;;;;;1.17;0.80;;;;;;;11.25;97.66;100292.03;5086146;28;20090;-71
2022/10/31 07:51:43;;;;;;;2.50;2.15;;;;;;;11.29;97.69;100291.19;5097185;28;20502;-72
2022/10/31 07:54:20;;;;;;;0.77;0.77;;;;;;;11.32;97.68;100286.09;5097280;28;20106;-74
2022/10/31 07:56:48;;;;;;;0.57;0.57;;;;;;;11.28;97.49;100290.31;5095956;28;20044;-70
2022/10/31 07:59:17;;;;;;;0.60;0.60;;;;;;;11.30;97.45;100285.25;5097321;28;20035;-72
2022/10/31 08:01:47;;;;;;;1.13;1.05;;;;;;;11.34;97.60;100286.97;5095263;28;20055;-71
2022/10/31 08:04:27;;;;;;;1.48;1.35;;;;;;;11.38;97.41;100281.00;5096622;28;20078;-73
2022/10/31 08:07:06;;;;;;;;;;;;;;;11.41;97.42;100283.59;5097122;28;20071;-74
2022/10/31 08:09:38;;;;;;;1.30;1.20;;;;;;;11.37;97.33;100281.88;5096906;28;20022;-73
2022/10/31 08:12:18;;;;;;;1.95;0.50;;;;;;;11.35;97.41;100281.84;5095579;28;20063;-75
2022/10/31 08:14:47;;;;;;;0.80;0.80;;;;;;;11.37;97.41;100276.75;5097119;28;20376;-71
2022/10/31 08:17:20;;;;;;;2.70;1.27;;;;;;;11.37;97.22;100286.97;5095465;28;20040;-73
2022/10/31 08:20:00;;;;;;;1.15;0.93;;;;;;;11.39;97.26;100285.28;5096731;28;20134;-74
2022/10/31 08:22:34;;;;;;;1.98;1.58;;;;;;;11.39;97.06;100287.84;5095316;28;20059;-73
2022/10/31 08:25:09;;;;;;;1.48;1.38;;;;;;;11.40;96.94;100286.97;5095852;28;20381;-73
2022/10/31 08:27:37;;;;;;;;;;;;;;;11.44;96.87;100293.84;5112795;28;20047;-71
2022/10/31 08:30:08;;;;;;;;;;;;;;;11.47;97.02;100283.59;5094794;28;19973;-73
2022/10/31 08:32:40;;;;;;;;;;;;;;;11.48;96.69;100282.78;5096580;28;20423;-71
2022/10/31 08:35:19;;;;;;;;;;;;;;;11.56;96.77;100287.94;5096536;28;19920;-72
2022/10/31 08:38:10;;;;;;;;;;;;;;;11.58;96.57;100281.97;5096651;28;20429;-71
2022/10/31 08:40:39;;;;;;;;;;;;;;;11.64;96.85;100276.03;5112517;28;19927;-71
2022/10/31 08:43:14;;;;;;;;;;;;;;;11.68;96.79;100282.91;5096328;28;20370;-72
2022/10/31 08:45:43;;;;;;;;;;;;;;;11.65;96.43;100286.28;5112609;28;19927;-74
2022/10/31 08:48:20;;;;;;;;;;;;;;;11.66;96.54;100282.03;5094656;28;19951;-73
2022/10/31 08:50:48;;;;;;;;;;;;;;;11.69;96.23;100284.59;5112400;28;19920;-71
2022/10/31 08:53:18;;;;;;;;;;;;;;;11.71;96.38;100278.66;5095389;28;19919;-73
2022/10/31 08:55:55;;;;;;;;;;;;;;;11.75;96.01;100279.53;5095297;28;19926;-72
2022/10/31 08:58:26;;;;;;;;;;;;;;;11.73;96.05;100282.09;5096473;28;19920;-73
2022/10/31 09:01:00;;;;;;;;;;;;;;;11.74;96.04;100277.81;5094809;28;19927;-71
2022/10/31 09:03:31;;;;;;;;;;;;;;;11.78;95.99;100280.38;5111498;28;20388;-72
2022/10/31 09:06:02;;;;;;;;;;;;;;;11.78;95.85;100285.50;5093220;28;20015;-74
2022/10/31 09:08:32;;;;;;;;;;;;;;;11.77;96.10;100283.81;5075180;28;19943;-73
2022/10/31 09:11:02;;;;;;;;;;;;;;;11.81;95.56;100285.50;5095843;28;20403;-71
2022/10/31 09:13:53;;;;;;;;;;;;;;;11.76;95.49;100286.34;5091575;28;19927;-73
2022/10/31 09:16:27;;;;;;;;;;;;;;;11.67;95.63;100282.00;5096677;28;20417;-71
2022/10/31 09:18:58;;;;;;;;;;;;;;;11.61;95.45;100291.38;5077115;28;20305;-70
2022/10/31 09:21:26;;;;;;;;;;;;;;;11.48;95.16;100290.44;5092971;28;19936;-73
2022/10/31 09:23:54;;;;;;;;;;;;;;;11.44;95.14;100298.94;5085703;28;19920;-71
2022/10/31 09:26:23;;;;;;;;;;;;;;;11.39;95.08;100290.41;5088844;28;19990;-72
2022/10/31 09:29:02;;;;;;;;;;;;;;;11.45;95.27;100295.53;5095390;28;19924;-71
2022/10/31 09:31:32;;;;;;;;;;;;;;;11.43;95.14;100292.13;5094536;28;20116;-73
2022/10/31 09:34:07;;;;;;;;;;;;;;;11.47;95.20;100298.94;5094570;28;19959;-73
2022/10/31 09:36:38;;;;;;;;;;;;;;;11.50;95.32;100293.84;5090200;28;19966;-73
2022/10/31 09:39:11;;;;;;;;;;;;;;;11.55;95.43;100294.75;5074128;28;19947;-73
2022/10/31 09:41:49;;;;;;;;;;;;;;;11.54;95.38;100294.75;5074990;28;19970;-73
2022/10/31 09:44:32;;;;;;;;;;;;;;;11.51;95.31;100295.56;5073633;28;20019;-73
2022/10/31 09:47:05;;;;;;;;;;;;;;;11.56;95.36;100293.91;5073317;28;19978;-73
2022/10/31 09:49:52;;;;;;;;;;;;;;;11.64;95.28;100294.78;5073886;28;19921;-71
2022/10/31 09:52:24;;;;;;;;;;;;;;;11.70;95.56;100286.31;5075037;28;20267;-72
2022/10/31 09:54:56;;;;;;;;;;;;;;;11.76;95.60;100287.19;5075096;28;19928;-73
2022/10/31 09:57:26;;;;;;;;;;;;;;;11.82;95.61;100287.25;5074691;28;19947;-72
2022/10/31 09:59:55;;;;;;;;;;;;;;;11.87;95.29;100285.56;5073207;28;19995;-72
2022/10/31 10:02:26;;;;;;;;;;;;;;;11.82;95.33;100286.38;5086500;28;19927;-73
2022/10/31 10:04:59;;;;;;;;;;;;;;;11.84;95.56;100287.22;5092522;28;20460;-72
2022/10/31 10:07:33;;;;;;;;;;;;;;;11.85;95.23;100284.66;5094600;28;20357;-70
2022/10/31 10:10:17;;;;;;;;;;;;;;;11.92;95.29;100283.00;5095013;28;19924;-70
2022/10/31 10:13:09;;;;;;;;;;;;;;;11.99;95.29;100288.16;5094648;28;19920;-70
2022/10/31 10:15:47;;;;;;;;;;;;;;;11.93;95.22;100288.13;5094582;28;19920;-71
2022/10/31 10:18:22;;;;;;;;;;;;;;;11.84;95.28;100285.53;5087446;28;19927;-71
2022/10/31 10:20:58;;;;;;;;;;;;;;;11.81;95.15;100282.97;5073963;28;19920;-71
2022/10/31 10:23:35;;;;;;;;;;;;;;;11.80;95.33;100282.97;5073913;28;19929;-73
2022/10/31 10:26:07;;;;;;;;;;;;;;;11.84;95.02;100282.97;5074224;28;19927;-73
2022/10/31 10:28:41;;;;;;;;;;;;;;;11.93;95.28;100285.56;5074396;28;19927;-71
2022/10/31 10:31:11;;;;;;;;;;;;;;;11.95;95.10;100283.84;5074101;28;19927;-71
2022/10/31 10:33:41;;;;;;;;;;;;;;;11.98;95.36;100281.31;5073070;28;19927;-71
2022/10/31 10:36:15;;;;;;;;;;;;;;;11.90;95.06;100280.44;5074231;28;19920;-72
2022/10/31 10:38:51;;;;;;;;;;;;;;;11.98;95.09;100280.47;5074238;28;19989;-72
2022/10/31 10:41:20;;;;;;;;;;;;;;;12.04;94.90;100278.75;5066265;28;19919;-71
2022/10/31 10:43:49;;;;;;;;;;;;;;;12.06;94.72;100279.66;5092615;28;19988;-71
2022/10/31 10:49:00;;;;;;;;;;;;;;;12.12;94.65;100276.22;5094190;28;19920;-71
2022/10/31 10:51:35;;;;;;;;;;;;;;;12.10;94.68;100277.94;5091176;28;20328;-72
2022/10/31 10:54:33;;;;;;;;;;;;;;;12.12;94.62;100270.28;5073056;28;20316;-71
2022/10/31 10:57:11;;;;;;;;;;;;;;;12.18;94.81;100270.28;5074011;28;19926;-71
2022/10/31 10:59:39;;;;;;;;;;;;;;;12.24;94.71;100270.31;5074123;28;20363;-71
2022/10/31 11:02:16;;;;;;;;;;;;;;;12.23;94.56;100264.34;5073667;28;20362;-71
2022/10/31 11:04:47;;;;;;;;;;;;;;;12.24;94.33;100270.31;5072488;28;19970;-71
2022/10/31 11:07:17;;;;;;;;;;;;;;;12.26;94.19;100266.03;5074156;28;19920;-72
2022/10/31 11:09:46;;;;;;;;;;;;;;;12.26;94.14;100264.31;5074036;28;19920;-72
2022/10/31 11:12:20;;;;;;;;;;;;;;;12.24;94.15;100265.19;5074938;28;19927;-72
2022/10/31 11:14:51;;;;;;;;;;;;;;;12.27;93.91;100265.19;5081859;28;19925;-71
2022/10/31 11:17:29;;;;;;;;;;;;;;;12.31;93.88;100262.63;5082363;28;19973;-72
2022/10/31 11:20:01;;;;;;;;;;;;;;;12.31;93.90;100261.78;5078126;28;19921;-72
2022/10/31 11:22:31;;;;;;;;;;;;;;;12.33;93.77;100258.38;5077895;28;20370;-71
2022/10/31 11:24:59;;;;;;;;;;;;;;;12.33;93.74;100265.19;5077558;28;20441;-72
2022/10/31 11:27:27;;;;;;;;;;;;;;;12.32;93.78;100253.25;5076631;28;19920;-72
2022/10/31 11:30:05;;;;;;;;;;;;;;;12.29;93.60;100248.09;5081766;28;19966;-71
2022/10/31 11:32:34;;;;;;;;;;;;;;;12.30;93.57;100249.84;5080522;28;19931;-72
2022/10/31 11:35:04;;;;;;;;;;;;;;;12.32;93.52;100253.25;5077667;28;19981;-69
2022/10/31 11:37:36;;;;;;;;;;;;;;;12.35;93.37;100245.56;5077731;28;19921;-72
2022/10/31 11:40:06;;;;;;;;;;;;;;;12.37;93.11;100241.31;5077716;28;20021;-71
2022/10/31 11:42:38;;;;;;;;;;;;;;;12.39;93.16;100244.72;5077237;28;19969;-71
2022/10/31 11:45:08;;;;;;;;;;;;;;;12.40;93.22;100241.31;5077168;28;19920;-71
2022/10/31 11:47:36;;;;;;;;;;;;;;;12.40;93.19;100246.44;5077767;28;19932;-70
2022/10/31 11:50:10;;;;;;;;;;;;;;;12.34;93.20;100241.28;5077428;28;20381;-71
2022/10/31 11:52:41;;;;;;;;;;;;;;;12.28;92.94;100246.41;5077389;28;20011;-72
2022/10/31 11:55:16;;;;;;;;;;;;;;;12.28;92.85;100236.19;5077055;28;19928;-71
2022/10/31 11:57:46;;;;;;;;;;;;;;;12.25;92.89;100238.72;5080069;28;19923;-71
2022/10/31 12:00:22;;;;;;;;;;;;;;;12.27;92.77;100239.56;5092432;28;19920;-72
2022/10/31 12:02:51;;;;;;;;;;;;;;;12.30;92.99;100237.03;5097011;28;20374;-72
2022/10/31 12:05:21;;;;;;;;;;;;;;;12.27;92.98;100237.03;5095323;28;19920;-72
2022/10/31 12:07:51;;;;;;;;;;;;;;;12.23;92.79;100237.88;5097172;28;19920;-71
2022/10/31 12:10:22;;;;;;;;;;;;;;;12.24;92.82;100239.59;5097400;28;20006;-71
2022/10/31 12:12:58;;;;;;;;;;;;;;;12.30;92.94;100239.59;5097398;28;19920;-71
2022/10/31 12:15:30;;;;;;;;;;;;;;;12.33;92.95;100239.59;5097325;28;19920;-71
2022/10/31 12:18:07;;;;;;;;;;;;;;;12.37;92.64;100242.16;5097261;28;20267;-71
2022/10/31 12:20:42;;;;;;;;;;;;;;;12.30;92.63;100244.72;5097496;28;19970;-71
2022/10/31 12:23:17;;;;;;;;;;;;;;;12.27;92.61;100240.44;5095564;28;19943;-71